Decoded Metar for WBKS (SANDAKAN/KALIMAN in _UNIDENTIFIED) (IATA:N/A) | Meteo·Mobile Aviation Weather
aviador You're here:

WBKS Decoded Metar

SANDAKAN/KALIMAN in _UNIDENTIFIED
Report Time2019-01-20 10:00:00
UTC Time2019-01-20 10:46:32
Flight Rules vfr VFR
Wind030° at 10 kt
W.Decomp.*RWY 08: 6.4 kt HW 7.7 kt LCW
W.Rank030° ranks 17
Current wind is above 030° avg. (5.5)
Visibility9999 m
Phenomena:N/A
Clouds:Few 016 Hf
Broken 280 Hf
Expected CloudBase > 1,600 ft AGL from Temp-Dew spread
Ceiling28,000 ft
Temp28°C (ISA +13)
Dew Point24°C (79% RH)
Heat Index31.9°C
QNH1008 hPa
Density Alt2,110 ft
Elevation43 ft
Report Wrong Elevation
Raw Report
METAR WBKS 201000Z 03010KT 340V060 9999 FEW016 BKN280 28/24 Q1008=

Extra information for WBKS:More info

Metar Taf Metar & Taf Last 4 Metars F.Rules Stats Wind Profile Meteogram Temp Stats Airport Information Weather charts Add Link Nearby VenuesMetar ALERT Operation Metar Decoded Social comments